sensor_id;sensor_type;location;lat;lon;timestamp;P1;durP1;ratioP1;P2;durP2;ratioP2
23712;SDS011;12035;49.978;8.298;2022-11-09T00:02:16;4.03;;;2.25;;
23712;SDS011;12035;49.978;8.298;2022-11-09T00:07:14;3.42;;;2.00;;
23712;SDS011;12035;49.978;8.298;2022-11-09T00:12:11;3.42;;;1.83;;
23712;SDS011;12035;49.978;8.298;2022-11-09T00:17:09;3.90;;;2.00;;
23712;SDS011;12035;49.978;8.298;2022-11-09T00:22:06;3.85;;;1.67;;
23712;SDS011;12035;49.978;8.298;2022-11-09T00:32:01;3.20;;;1.40;;
23712;SDS011;12035;49.978;8.298;2022-11-09T00:36:58;3.58;;;2.00;;
23712;SDS011;12035;49.978;8.298;2022-11-09T00:41:55;4.68;;;2.58;;
23712;SDS011;12035;49.978;8.298;2022-11-09T00:51:51;3.05;;;1.92;;
23712;SDS011;12035;49.978;8.298;2022-11-09T00:56:48;4.88;;;2.30;;
23712;SDS011;12035;49.978;8.298;2022-11-09T01:06:43;7.03;;;2.80;;
23712;SDS011;12035;49.978;8.298;2022-11-09T01:11:40;6.82;;;2.80;;
23712;SDS011;12035;49.978;8.298;2022-11-09T01:16:38;3.70;;;2.10;;
23712;SDS011;12035;49.978;8.298;2022-11-09T01:21:35;5.65;;;2.20;;
23712;SDS011;12035;49.978;8.298;2022-11-09T01:31:30;5.13;;;2.10;;
23712;SDS011;12035;49.978;8.298;2022-11-09T01:36:27;5.25;;;2.10;;
23712;SDS011;12035;49.978;8.298;2022-11-09T01:41:25;4.78;;;2.10;;
23712;SDS011;12035;49.978;8.298;2022-11-09T01:46:26;8.00;;;2.28;;
23712;SDS011;12035;49.978;8.298;2022-11-09T01:51:30;4.65;;;2.55;;
23712;SDS011;12035;49.978;8.298;2022-11-09T01:56:30;5.40;;;2.42;;
23712;SDS011;12035;49.978;8.298;2022-11-09T02:01:29;5.22;;;2.40;;
23712;SDS011;12035;49.978;8.298;2022-11-09T02:06:27;4.43;;;2.35;;
23712;SDS011;12035;49.978;8.298;2022-11-09T02:11:26;5.20;;;2.50;;
23712;SDS011;12035;49.978;8.298;2022-11-09T02:16:24;4.25;;;2.50;;
23712;SDS011;12035;49.978;8.298;2022-11-09T02:21:24;3.90;;;2.42;;
23712;SDS011;12035;49.978;8.298;2022-11-09T02:26:25;4.22;;;2.72;;
23712;SDS011;12035;49.978;8.298;2022-11-09T02:31:28;4.80;;;2.70;;
23712;SDS011;12035;49.978;8.298;2022-11-09T02:36:30;3.95;;;2.53;;
23712;SDS011;12035;49.978;8.298;2022-11-09T02:41:27;5.72;;;2.92;;
23712;SDS011;12035;49.978;8.298;2022-11-09T02:46:29;6.35;;;3.03;;
23712;SDS011;12035;49.978;8.298;2022-11-09T02:51:30;4.10;;;2.70;;
23712;SDS011;12035;49.978;8.298;2022-11-09T02:56:27;5.20;;;3.13;;
23712;SDS011;12035;49.978;8.298;2022-11-09T03:01:24;4.50;;;2.90;;
23712;SDS011;12035;49.978;8.298;2022-11-09T03:06:21;4.80;;;2.85;;
23712;SDS011;12035;49.978;8.298;2022-11-09T03:11:29;5.00;;;2.97;;
23712;SDS011;12035;49.978;8.298;2022-11-09T03:16:26;5.43;;;2.60;;
23712;SDS011;12035;49.978;8.298;2022-11-09T03:21:24;7.03;;;2.40;;
23712;SDS011;12035;49.978;8.298;2022-11-09T03:31:19;4.90;;;2.97;;
23712;SDS011;12035;49.978;8.298;2022-11-09T03:36:16;4.47;;;2.47;;
23712;SDS011;12035;49.978;8.298;2022-11-09T03:41:13;4.43;;;2.45;;
23712;SDS011;12035;49.978;8.298;2022-11-09T03:46:10;6.05;;;3.17;;
23712;SDS011;12035;49.978;8.298;2022-11-09T03:51:09;6.72;;;3.50;;
23712;SDS011;12035;49.978;8.298;2022-11-09T03:56:06;6.03;;;3.63;;
23712;SDS011;12035;49.978;8.298;2022-11-09T04:01:03;5.82;;;4.07;;
23712;SDS011;12035;49.978;8.298;2022-11-09T04:06:00;6.60;;;5.03;;
23712;SDS011;12035;49.978;8.298;2022-11-09T04:10:59;7.90;;;5.38;;
23712;SDS011;12035;49.978;8.298;2022-11-09T04:15:56;7.35;;;5.20;;
23712;SDS011;12035;49.978;8.298;2022-11-09T04:20:53;7.22;;;4.82;;
23712;SDS011;12035;49.978;8.298;2022-11-09T04:25:53;6.13;;;4.32;;
23712;SDS011;12035;49.978;8.298;2022-11-09T04:35:48;5.45;;;4.00;;
23712;SDS011;12035;49.978;8.298;2022-11-09T04:45:42;6.70;;;4.47;;
23712;SDS011;12035;49.978;8.298;2022-11-09T04:50:41;6.93;;;4.78;;
23712;SDS011;12035;49.978;8.298;2022-11-09T04:55:38;7.03;;;4.10;;
23712;SDS011;12035;49.978;8.298;2022-11-09T05:00:36;7.40;;;4.88;;
23712;SDS011;12035;49.978;8.298;2022-11-09T05:05:34;8.25;;;5.03;;
23712;SDS011;12035;49.978;8.298;2022-11-09T05:10:34;6.53;;;5.20;;
23712;SDS011;12035;49.978;8.298;2022-11-09T05:15:32;7.55;;;4.90;;
23712;SDS011;12035;49.978;8.298;2022-11-09T05:20:30;7.18;;;5.07;;
23712;SDS011;12035;49.978;8.298;2022-11-09T05:25:28;7.15;;;5.40;;
23712;SDS011;12035;49.978;8.298;2022-11-09T05:30:26;6.40;;;4.93;;
23712;SDS011;12035;49.978;8.298;2022-11-09T05:35:23;8.32;;;5.65;;
23712;SDS011;12035;49.978;8.298;2022-11-09T05:40:21;7.30;;;5.35;;
23712;SDS011;12035;49.978;8.298;2022-11-09T05:45:18;9.18;;;5.85;;
23712;SDS011;12035;49.978;8.298;2022-11-09T05:50:16;8.32;;;6.05;;
23712;SDS011;12035;49.978;8.298;2022-11-09T05:55:14;9.75;;;6.85;;
23712;SDS011;12035;49.978;8.298;2022-11-09T06:00:12;10.13;;;8.15;;
23712;SDS011;12035;49.978;8.298;2022-11-09T06:05:10;10.52;;;8.60;;
23712;SDS011;12035;49.978;8.298;2022-11-09T06:10:09;11.18;;;8.00;;
23712;SDS011;12035;49.978;8.298;2022-11-09T06:15:07;10.93;;;8.30;;
23712;SDS011;12035;49.978;8.298;2022-11-09T06:20:05;9.80;;;8.02;;
23712;SDS011;12035;49.978;8.298;2022-11-09T06:25:03;11.10;;;7.97;;
23712;SDS011;12035;49.978;8.298;2022-11-09T06:30:02;10.45;;;7.20;;
23712;SDS011;12035;49.978;8.298;2022-11-09T06:35:01;9.57;;;7.65;;
23712;SDS011;12035;49.978;8.298;2022-11-09T06:39:58;12.25;;;8.07;;
23712;SDS011;12035;49.978;8.298;2022-11-09T06:44:55;10.10;;;7.20;;
23712;SDS011;12035;49.978;8.298;2022-11-09T06:49:54;10.23;;;6.95;;
23712;SDS011;12035;49.978;8.298;2022-11-09T06:54:51;8.52;;;7.13;;
23712;SDS011;12035;49.978;8.298;2022-11-09T06:59:48;8.95;;;6.50;;
23712;SDS011;12035;49.978;8.298;2022-11-09T07:04:46;9.48;;;6.97;;
23712;SDS011;12035;49.978;8.298;2022-11-09T07:09:44;8.98;;;6.53;;
23712;SDS011;12035;49.978;8.298;2022-11-09T07:14:42;9.20;;;7.00;;
23712;SDS011;12035;49.978;8.298;2022-11-09T07:19:39;8.60;;;6.55;;
23712;SDS011;12035;49.978;8.298;2022-11-09T07:24:36;8.48;;;6.47;;
23712;SDS011;12035;49.978;8.298;2022-11-09T07:29:34;8.60;;;6.85;;
23712;SDS011;12035;49.978;8.298;2022-11-09T07:34:31;7.72;;;6.55;;
23712;SDS011;12035;49.978;8.298;2022-11-09T07:44:25;7.83;;;5.90;;
23712;SDS011;12035;49.978;8.298;2022-11-09T07:49:24;8.75;;;6.28;;
23712;SDS011;12035;49.978;8.298;2022-11-09T07:54:21;11.23;;;6.70;;
23712;SDS011;12035;49.978;8.298;2022-11-09T07:59:20;8.98;;;6.05;;
23712;SDS011;12035;49.978;8.298;2022-11-09T08:04:17;7.60;;;5.53;;
23712;SDS011;12035;49.978;8.298;2022-11-09T08:09:16;7.95;;;5.53;;
23712;SDS011;12035;49.978;8.298;2022-11-09T08:14:13;8.95;;;5.88;;
23712;SDS011;12035;49.978;8.298;2022-11-09T08:19:10;7.13;;;5.82;;
23712;SDS011;12035;49.978;8.298;2022-11-09T08:24:07;7.72;;;5.60;;
23712;SDS011;12035;49.978;8.298;2022-11-09T08:29:06;6.68;;;5.13;;
23712;SDS011;12035;49.978;8.298;2022-11-09T08:34:03;5.63;;;4.28;;
23712;SDS011;12035;49.978;8.298;2022-11-09T08:39:00;6.68;;;4.25;;
23712;SDS011;12035;49.978;8.298;2022-11-09T08:43:58;6.05;;;4.35;;
23712;SDS011;12035;49.978;8.298;2022-11-09T08:48:56;3.92;;;3.50;;
23712;SDS011;12035;49.978;8.298;2022-11-09T08:53:54;4.55;;;3.50;;
23712;SDS011;12035;49.978;8.298;2022-11-09T08:58:51;4.55;;;2.85;;
23712;SDS011;12035;49.978;8.298;2022-11-09T09:03:48;3.75;;;2.80;;
23712;SDS011;12035;49.978;8.298;2022-11-09T09:08:47;4.90;;;2.78;;
23712;SDS011;12035;49.978;8.298;2022-11-09T09:13:44;3.60;;;2.80;;
23712;SDS011;12035;49.978;8.298;2022-11-09T09:18:41;3.72;;;2.00;;
23712;SDS011;12035;49.978;8.298;2022-11-09T09:23:38;3.40;;;1.90;;
23712;SDS011;12035;49.978;8.298;2022-11-09T09:28:37;4.30;;;1.65;;
23712;SDS011;12035;49.978;8.298;2022-11-09T09:33:34;2.65;;;1.27;;
23712;SDS011;12035;49.978;8.298;2022-11-09T09:38:32;2.60;;;1.30;;
23712;SDS011;12035;49.978;8.298;2022-11-09T09:43:30;2.30;;;1.08;;
23712;SDS011;12035;49.978;8.298;2022-11-09T09:48:32;2.63;;;1.27;;
23712;SDS011;12035;49.978;8.298;2022-11-09T09:53:35;1.88;;;0.98;;
23712;SDS011;12035;49.978;8.298;2022-11-09T09:58:40;2.20;;;1.30;;
23712;SDS011;12035;49.978;8.298;2022-11-09T10:03:44;2.80;;;1.60;;
23712;SDS011;12035;49.978;8.298;2022-11-09T10:08:44;2.85;;;1.10;;
23712;SDS011;12035;49.978;8.298;2022-11-09T10:13:59;3.03;;;1.15;;
23712;SDS011;12035;49.978;8.298;2022-11-09T10:19:21;2.47;;;1.20;;
23712;SDS011;12035;49.978;8.298;2022-11-09T10:24:30;1.60;;;0.90;;
23712;SDS011;12035;49.978;8.298;2022-11-09T10:29:39;2.67;;;0.93;;
23712;SDS011;12035;49.978;8.298;2022-11-09T10:34:43;2.35;;;1.10;;
23712;SDS011;12035;49.978;8.298;2022-11-09T10:39:51;2.47;;;0.90;;
23712;SDS011;12035;49.978;8.298;2022-11-09T10:44:55;2.47;;;1.00;;
23712;SDS011;12035;49.978;8.298;2022-11-09T10:50:06;1.70;;;0.93;;
23712;SDS011;12035;49.978;8.298;2022-11-09T10:55:26;2.65;;;1.30;;
23712;SDS011;12035;49.978;8.298;2022-11-09T11:00:25;2.13;;;0.90;;
23712;SDS011;12035;49.978;8.298;2022-11-09T11:05:26;2.75;;;1.20;;
23712;SDS011;12035;49.978;8.298;2022-11-09T11:10:28;2.28;;;0.90;;
23712;SDS011;12035;49.978;8.298;2022-11-09T11:15:28;1.20;;;0.60;;
23712;SDS011;12035;49.978;8.298;2022-11-09T11:20:33;3.72;;;1.02;;
23712;SDS011;12035;49.978;8.298;2022-11-09T11:25:31;3.05;;;0.82;;
23712;SDS011;12035;49.978;8.298;2022-11-09T11:30:35;1.25;;;0.50;;
23712;SDS011;12035;49.978;8.298;2022-11-09T11:36:00;1.60;;;0.60;;
23712;SDS011;12035;49.978;8.298;2022-11-09T11:41:11;1.30;;;0.50;;
23712;SDS011;12035;49.978;8.298;2022-11-09T11:46:47;1.52;;;0.63;;
23712;SDS011;12035;49.978;8.298;2022-11-09T11:51:57;3.00;;;1.00;;
23712;SDS011;12035;49.978;8.298;2022-11-09T11:57:05;2.40;;;0.60;;
23712;SDS011;12035;49.978;8.298;2022-11-09T12:02:23;2.72;;;0.80;;
23712;SDS011;12035;49.978;8.298;2022-11-09T12:08:06;2.05;;;0.75;;
23712;SDS011;12035;49.978;8.298;2022-11-09T12:13:12;4.05;;;1.23;;
23712;SDS011;12035;49.978;8.298;2022-11-09T12:18:35;4.32;;;0.80;;
23712;SDS011;12035;49.978;8.298;2022-11-09T12:23:57;3.00;;;0.80;;
23712;SDS011;12035;49.978;8.298;2022-11-09T12:29:13;2.72;;;0.80;;
23712;SDS011;12035;49.978;8.298;2022-11-09T12:34:17;4.55;;;0.80;;
23712;SDS011;12035;49.978;8.298;2022-11-09T12:39:22;3.60;;;0.70;;
23712;SDS011;12035;49.978;8.298;2022-11-09T12:44:25;3.50;;;0.82;;
23712;SDS011;12035;49.978;8.298;2022-11-09T12:49:35;2.55;;;0.73;;
23712;SDS011;12035;49.978;8.298;2022-11-09T12:54:36;1.92;;;0.73;;
23712;SDS011;12035;49.978;8.298;2022-11-09T12:59:44;1.38;;;0.60;;
23712;SDS011;12035;49.978;8.298;2022-11-09T13:04:53;2.83;;;0.80;;
23712;SDS011;12035;49.978;8.298;2022-11-09T13:09:54;2.38;;;0.80;;
23712;SDS011;12035;49.978;8.298;2022-11-09T13:14:54;3.95;;;0.73;;
23712;SDS011;12035;49.978;8.298;2022-11-09T13:19:51;4.30;;;0.73;;
23712;SDS011;12035;49.978;8.298;2022-11-09T13:24:51;3.90;;;0.70;;
23712;SDS011;12035;49.978;8.298;2022-11-09T13:29:54;2.28;;;1.10;;
23712;SDS011;12035;49.978;8.298;2022-11-09T13:34:51;1.92;;;0.60;;
23712;SDS011;12035;49.978;8.298;2022-11-09T13:39:51;4.00;;;0.60;;
23712;SDS011;12035;49.978;8.298;2022-11-09T13:44:50;5.80;;;0.98;;
23712;SDS011;12035;49.978;8.298;2022-11-09T13:49:47;1.23;;;0.70;;
23712;SDS011;12035;49.978;8.298;2022-11-09T13:54:46;2.15;;;0.80;;
23712;SDS011;12035;49.978;8.298;2022-11-09T13:59:50;3.75;;;1.10;;
23712;SDS011;12035;49.978;8.298;2022-11-09T14:04:48;2.95;;;0.90;;
23712;SDS011;12035;49.978;8.298;2022-11-09T14:09:48;2.55;;;0.77;;
23712;SDS011;12035;49.978;8.298;2022-11-09T14:15:03;2.53;;;0.90;;
23712;SDS011;12035;49.978;8.298;2022-11-09T14:20:13;2.22;;;1.00;;
23712;SDS011;12035;49.978;8.298;2022-11-09T14:25:23;1.50;;;0.77;;
23712;SDS011;12035;49.978;8.298;2022-11-09T14:30:22;2.65;;;0.80;;
23712;SDS011;12035;49.978;8.298;2022-11-09T14:35:23;3.95;;;0.88;;
23712;SDS011;12035;49.978;8.298;2022-11-09T14:40:26;5.25;;;1.58;;
23712;SDS011;12035;49.978;8.298;2022-11-09T14:45:26;2.60;;;0.75;;
23712;SDS011;12035;49.978;8.298;2022-11-09T14:50:24;2.58;;;0.70;;
23712;SDS011;12035;49.978;8.298;2022-11-09T14:55:25;4.55;;;0.80;;
23712;SDS011;12035;49.978;8.298;2022-11-09T15:00:24;5.70;;;1.35;;
23712;SDS011;12035;49.978;8.298;2022-11-09T15:05:34;2.80;;;0.63;;
23712;SDS011;12035;49.978;8.298;2022-11-09T15:10:35;3.15;;;0.60;;
23712;SDS011;12035;49.978;8.298;2022-11-09T15:15:33;4.22;;;0.88;;
23712;SDS011;12035;49.978;8.298;2022-11-09T15:20:32;3.17;;;0.65;;
23712;SDS011;12035;49.978;8.298;2022-11-09T15:25:31;1.50;;;0.50;;
23712;SDS011;12035;49.978;8.298;2022-11-09T15:30:33;1.15;;;0.60;;
23712;SDS011;12035;49.978;8.298;2022-11-09T15:35:32;2.30;;;0.70;;
23712;SDS011;12035;49.978;8.298;2022-11-09T15:40:29;1.48;;;0.65;;
23712;SDS011;12035;49.978;8.298;2022-11-09T15:45:26;3.17;;;1.00;;
23712;SDS011;12035;49.978;8.298;2022-11-09T15:50:26;3.30;;;1.05;;
23712;SDS011;12035;49.978;8.298;2022-11-09T15:55:23;2.38;;;0.80;;
23712;SDS011;12035;49.978;8.298;2022-11-09T16:00:20;3.38;;;0.88;;
23712;SDS011;12035;49.978;8.298;2022-11-09T16:05:18;3.97;;;0.80;;
23712;SDS011;12035;49.978;8.298;2022-11-09T16:10:18;3.00;;;1.10;;
23712;SDS011;12035;49.978;8.298;2022-11-09T16:15:17;5.75;;;1.33;;
23712;SDS011;12035;49.978;8.298;2022-11-09T16:20:15;5.55;;;1.40;;
23712;SDS011;12035;49.978;8.298;2022-11-09T16:25:13;4.30;;;0.90;;
23712;SDS011;12035;49.978;8.298;2022-11-09T16:30:12;3.63;;;0.82;;
23712;SDS011;12035;49.978;8.298;2022-11-09T16:35:10;2.80;;;1.00;;
23712;SDS011;12035;49.978;8.298;2022-11-09T16:40:08;4.22;;;1.17;;
23712;SDS011;12035;49.978;8.298;2022-11-09T16:45:09;2.05;;;0.88;;
23712;SDS011;12035;49.978;8.298;2022-11-09T16:50:10;3.40;;;0.90;;
23712;SDS011;12035;49.978;8.298;2022-11-09T16:55:08;1.98;;;1.00;;
23712;SDS011;12035;49.978;8.298;2022-11-09T17:00:06;3.28;;;1.08;;
23712;SDS011;12035;49.978;8.298;2022-11-09T17:05:06;2.17;;;0.80;;
23712;SDS011;12035;49.978;8.298;2022-11-09T17:10:04;3.58;;;1.35;;
23712;SDS011;12035;49.978;8.298;2022-11-09T17:15:01;3.22;;;1.20;;
23712;SDS011;12035;49.978;8.298;2022-11-09T17:19:59;3.33;;;1.15;;
23712;SDS011;12035;49.978;8.298;2022-11-09T17:25:00;5.18;;;1.73;;
23712;SDS011;12035;49.978;8.298;2022-11-09T17:29:58;3.85;;;1.58;;
23712;SDS011;12035;49.978;8.298;2022-11-09T17:34:55;3.65;;;1.27;;
23712;SDS011;12035;49.978;8.298;2022-11-09T17:39:52;3.28;;;1.38;;
23712;SDS011;12035;49.978;8.298;2022-11-09T17:44:51;3.35;;;1.23;;
23712;SDS011;12035;49.978;8.298;2022-11-09T17:49:49;6.55;;;2.10;;
23712;SDS011;12035;49.978;8.298;2022-11-09T17:54:47;2.55;;;1.00;;
23712;SDS011;12035;49.978;8.298;2022-11-09T17:59:44;3.35;;;1.10;;
23712;SDS011;12035;49.978;8.298;2022-11-09T18:04:42;2.33;;;1.13;;
23712;SDS011;12035;49.978;8.298;2022-11-09T18:09:40;4.10;;;1.30;;
23712;SDS011;12035;49.978;8.298;2022-11-09T18:14:37;6.65;;;1.88;;
23712;SDS011;12035;49.978;8.298;2022-11-09T18:19:34;4.10;;;1.48;;
23712;SDS011;12035;49.978;8.298;2022-11-09T18:24:32;4.22;;;1.45;;
23712;SDS011;12035;49.978;8.298;2022-11-09T18:29:30;6.05;;;1.60;;
23712;SDS011;12035;49.978;8.298;2022-11-09T18:34:27;6.85;;;1.88;;
23712;SDS011;12035;49.978;8.298;2022-11-09T18:39:24;7.63;;;1.80;;
23712;SDS011;12035;49.978;8.298;2022-11-09T18:44:23;5.75;;;1.20;;
23712;SDS011;12035;49.978;8.298;2022-11-09T18:49:21;3.25;;;1.35;;
23712;SDS011;12035;49.978;8.298;2022-11-09T18:54:18;3.97;;;1.75;;
23712;SDS011;12035;49.978;8.298;2022-11-09T19:04:13;6.73;;;2.90;;
23712;SDS011;12035;49.978;8.298;2022-11-09T19:09:12;4.50;;;1.25;;
23712;SDS011;12035;49.978;8.298;2022-11-09T19:14:29;3.22;;;1.05;;
23712;SDS011;12035;49.978;8.298;2022-11-09T19:19:29;3.72;;;1.10;;
23712;SDS011;12035;49.978;8.298;2022-11-09T19:24:26;1.98;;;0.88;;
23712;SDS011;12035;49.978;8.298;2022-11-09T19:29:24;4.25;;;1.00;;
23712;SDS011;12035;49.978;8.298;2022-11-09T19:34:22;3.95;;;0.93;;
23712;SDS011;12035;49.978;8.298;2022-11-09T19:44:17;5.03;;;1.10;;
23712;SDS011;12035;49.978;8.298;2022-11-09T19:49:14;3.67;;;1.10;;
23712;SDS011;12035;49.978;8.298;2022-11-09T19:54:11;5.40;;;1.55;;
23712;SDS011;12035;49.978;8.298;2022-11-09T19:59:12;3.85;;;1.08;;
23712;SDS011;12035;49.978;8.298;2022-11-09T20:04:11;2.80;;;0.90;;
23712;SDS011;12035;49.978;8.298;2022-11-09T20:09:09;4.55;;;1.10;;
23712;SDS011;12035;49.978;8.298;2022-11-09T20:14:07;2.60;;;1.00;;
23712;SDS011;12035;49.978;8.298;2022-11-09T20:19:08;4.35;;;1.10;;
23712;SDS011;12035;49.978;8.298;2022-11-09T20:24:08;4.13;;;0.95;;
23712;SDS011;12035;49.978;8.298;2022-11-09T20:29:06;5.03;;;0.90;;
23712;SDS011;12035;49.978;8.298;2022-11-09T20:34:04;4.00;;;1.02;;
23712;SDS011;12035;49.978;8.298;2022-11-09T20:39:02;2.80;;;1.00;;
23712;SDS011;12035;49.978;8.298;2022-11-09T20:43:59;5.50;;;0.85;;
23712;SDS011;12035;49.978;8.298;2022-11-09T20:48:56;4.28;;;1.35;;
23712;SDS011;12035;49.978;8.298;2022-11-09T20:53:55;3.90;;;1.20;;
23712;SDS011;12035;49.978;8.298;2022-11-09T20:58:55;6.38;;;1.60;;
23712;SDS011;12035;49.978;8.298;2022-11-09T21:03:52;5.47;;;1.95;;
23712;SDS011;12035;49.978;8.298;2022-11-09T21:08:50;3.45;;;1.30;;
23712;SDS011;12035;49.978;8.298;2022-11-09T21:13:50;4.07;;;0.95;;
23712;SDS011;12035;49.978;8.298;2022-11-09T21:18:49;1.45;;;0.88;;
23712;SDS011;12035;49.978;8.298;2022-11-09T21:23:47;3.30;;;1.02;;
23712;SDS011;12035;49.978;8.298;2022-11-09T21:29:02;4.13;;;1.35;;
23712;SDS011;12035;49.978;8.298;2022-11-09T21:34:18;3.80;;;1.30;;
23712;SDS011;12035;49.978;8.298;2022-11-09T21:39:16;6.93;;;1.20;;
23712;SDS011;12035;49.978;8.298;2022-11-09T21:44:13;8.48;;;1.58;;
23712;SDS011;12035;49.978;8.298;2022-11-09T21:49:11;3.42;;;1.30;;
23712;SDS011;12035;49.978;8.298;2022-11-09T21:54:10;5.35;;;1.42;;
23712;SDS011;12035;49.978;8.298;2022-11-09T21:59:07;5.40;;;1.60;;
23712;SDS011;12035;49.978;8.298;2022-11-09T22:04:06;3.03;;;1.15;;
23712;SDS011;12035;49.978;8.298;2022-11-09T22:09:04;7.38;;;1.60;;
23712;SDS011;12035;49.978;8.298;2022-11-09T22:14:04;3.85;;;1.20;;
23712;SDS011;12035;49.978;8.298;2022-11-09T22:19:18;4.38;;;1.52;;
23712;SDS011;12035;49.978;8.298;2022-11-09T22:24:33;3.95;;;1.20;;
23712;SDS011;12035;49.978;8.298;2022-11-09T22:29:32;5.53;;;1.58;;
23712;SDS011;12035;49.978;8.298;2022-11-09T22:34:29;4.78;;;1.30;;
23712;SDS011;12035;49.978;8.298;2022-11-09T22:39:26;6.20;;;1.98;;
23712;SDS011;12035;49.978;8.298;2022-11-09T22:44:23;4.05;;;0.98;;
23712;SDS011;12035;49.978;8.298;2022-11-09T22:49:22;5.22;;;1.30;;
23712;SDS011;12035;49.978;8.298;2022-11-09T22:54:19;3.70;;;1.13;;
23712;SDS011;12035;49.978;8.298;2022-11-09T22:59:17;4.25;;;1.38;;
23712;SDS011;12035;49.978;8.298;2022-11-09T23:04:14;8.07;;;1.58;;
23712;SDS011;12035;49.978;8.298;2022-11-09T23:09:12;4.65;;;1.45;;
23712;SDS011;12035;49.978;8.298;2022-11-09T23:14:09;5.10;;;1.35;;
23712;SDS011;12035;49.978;8.298;2022-11-09T23:19:07;3.10;;;1.23;;
23712;SDS011;12035;49.978;8.298;2022-11-09T23:29:24;4.28;;;1.20;;
23712;SDS011;12035;49.978;8.298;2022-11-09T23:34:21;3.20;;;1.00;;
23712;SDS011;12035;49.978;8.298;2022-11-09T23:44:15;4.30;;;1.43;;
23712;SDS011;12035;49.978;8.298;2022-11-09T23:49:15;5.47;;;1.42;;
23712;SDS011;12035;49.978;8.298;2022-11-09T23:54:13;4.45;;;1.50;;
